Time;durP1;ratioP1;P1;durP2;ratioP2;P2;SDS_P1;SDS_P2;PMS_P1;PMS_P2;Temp;Humidity;BMP_temperature;BMP_pressure;BME280_temperature;BME280_humidity;BME280_pressure;Samples;Min_cycle;Max_cycle;Signal;HPM_P1;HPM_P2
2021/12/18 00:01:15;;;;;;;0.00;0.00;;;;;;;6.34;88.39;104270.03;5012035;28;20384;-75
2021/12/18 00:03:41;;;;;;;0.00;0.00;;;;;;;6.32;88.92;104269.88;5016610;28;20408;-74
2021/12/18 00:06:06;;;;;;;0.10;0.10;;;;;;;6.33;88.59;104271.72;5016355;28;20097;-76
2021/12/18 00:08:32;;;;;;;0.10;0.10;;;;;;;6.34;88.58;104273.56;5017059;28;20061;-76
2021/12/18 00:10:57;;;;;;;0.17;0.17;;;;;;;6.35;88.82;104269.28;5020795;28;20035;-75
2021/12/18 00:13:23;;;;;;;0.10;0.10;;;;;;;6.33;88.63;104261.31;5019629;28;20037;-76
2021/12/18 00:15:49;;;;;;;0.03;0.03;;;;;;;6.33;88.63;104263.91;5019670;28;20025;-75
2021/12/18 00:18:15;;;;;;;0.03;0.03;;;;;;;6.34;88.71;104259.63;5019547;28;20026;-75
2021/12/18 00:20:41;;;;;;;0.10;0.10;;;;;;;6.35;88.69;104258.88;5020447;28;20052;-76
2021/12/18 00:23:06;;;;;;;0.10;0.10;;;;;;;6.34;88.95;104257.94;5020548;28;20084;-75
2021/12/18 00:25:32;;;;;;;0.10;0.10;;;;;;;6.34;88.93;104257.03;5019574;28;20065;-76
2021/12/18 00:27:58;;;;;;;0.07;0.07;;;;;;;6.34;88.83;104255.31;5007328;28;20026;-75
2021/12/18 00:30:23;;;;;;;0.10;0.10;;;;;;;6.35;89.09;104256.25;5008943;28;20057;-75
2021/12/18 00:32:49;;;;;;;0.00;0.00;;;;;;;6.34;89.22;104259.63;5002871;28;20038;-75
2021/12/18 00:35:14;;;;;;;0.00;0.00;;;;;;;6.34;88.83;104249.22;5019873;28;20105;-75
2021/12/18 00:37:40;;;;;;;0.00;0.00;;;;;;;6.34;89.09;104252.72;5019382;28;20382;-75
2021/12/18 00:40:10;;;;;;;0.00;0.00;;;;;;;6.34;89.08;104257.03;5020197;28;20021;-75
2021/12/18 00:42:45;;;;;;;0.00;0.00;;;;;;;6.36;89.08;104251.22;5019845;28;20079;-75
2021/12/18 00:45:16;;;;;;;0.10;0.10;;;;;;;6.36;88.85;104251.22;5019636;28;20045;-75
2021/12/18 00:47:43;;;;;;;0.00;0.00;;;;;;;6.35;89.05;104240.66;5018516;28;20340;-76
2021/12/18 00:50:13;;;;;;;0.10;0.10;;;;;;;6.35;88.99;104245.84;5020139;28;20022;-76
2021/12/18 00:52:38;;;;;;;0.00;0.00;;;;;;;6.36;89.13;104233.00;5019850;28;20042;-75
2021/12/18 00:55:04;;;;;;;0.10;0.10;;;;;;;6.34;89.04;104239.72;5019855;28;20045;-76
2021/12/18 00:57:30;;;;;;;0.00;0.00;;;;;;;6.35;88.63;104232.84;5019680;28;20037;-76
2021/12/18 01:00:00;;;;;;;0.10;0.10;;;;;;;6.35;89.07;104232.84;5008022;28;20042;-76
2021/12/18 01:02:27;;;;;;;0.00;0.00;;;;;;;6.34;89.03;104239.72;5002282;28;20041;-76
2021/12/18 01:04:52;;;;;;;0.07;0.07;;;;;;;6.32;89.45;104234.38;5018962;28;20056;-76
2021/12/18 01:07:17;;;;;;;0.00;0.00;;;;;;;6.35;88.82;104238.03;5019967;28;20037;-75
2021/12/18 01:12:11;;;;;;;0.00;0.00;;;;;;;6.32;88.87;104228.22;5020482;28;20049;-76
2021/12/18 01:25:02;;;;;;;0.00;0.00;;;;;;;6.32;88.91;104243.84;5020134;28;20139;-75
2021/12/18 01:27:28;;;;;;;0.00;0.00;;;;;;;6.34;89.12;104241.41;5020490;28;20022;-76
2021/12/18 01:29:53;;;;;;;0.00;0.00;;;;;;;6.32;88.99;104238.66;5020120;28;20300;-75
2021/12/18 01:32:19;;;;;;;0.00;0.00;;;;;;;6.32;89.40;104242.19;5019310;28;20304;-75
2021/12/18 01:34:45;;;;;;;0.00;0.00;;;;;;;6.32;88.83;104239.59;5017627;28;20103;-75
2021/12/18 01:37:10;;;;;;;0.10;0.10;;;;;;;6.34;88.70;104239.72;5017762;28;20038;-75
2021/12/18 01:39:36;;;;;;;0.10;0.10;;;;;;;6.31;88.62;104242.91;5018783;28;20044;-76
2021/12/18 01:52:34;;;;;;;0.10;0.10;;;;;;;6.30;88.59;104250.59;5018584;28;20095;-75
2021/12/18 01:55:00;;;;;;;0.00;0.00;;;;;;;6.30;88.78;104245.38;5018973;28;20108;-75
2021/12/18 01:57:26;;;;;;;0.07;0.07;;;;;;;6.31;88.74;104247.22;5018259;28;20074;-75
2021/12/18 01:59:52;;;;;;;0.00;0.00;;;;;;;6.29;88.58;104251.38;4998844;28;20037;-75
2021/12/18 02:02:17;;;;;;;0.00;0.00;;;;;;;6.29;88.58;104252.25;4998983;28;20026;-73
2021/12/18 02:04:43;;;;;;;0.00;0.00;;;;;;;6.31;88.83;104252.44;5012226;28;20045;-75
2021/12/18 02:07:09;;;;;;;0.10;0.10;;;;;;;6.29;88.54;104244.47;5015973;28;20347;-75
2021/12/18 02:12:24;;;;;;;0.10;0.10;;;;;;;6.28;88.27;104239.09;5018210;28;20048;-74
2021/12/18 02:20:39;;;;;;;0.10;0.10;;;;;;;6.25;88.28;104233.59;5011169;28;20029;-75
2021/12/18 02:23:05;;;;;;;0.10;0.10;;;;;;;6.24;88.16;104224.88;5017082;28;20378;-76
2021/12/18 02:25:34;;;;;;;0.10;0.10;;;;;;;6.26;88.18;104230.22;5016966;28;20029;-74
2021/12/18 02:27:59;;;;;;;0.10;0.10;;;;;;;6.25;88.02;104224.09;5010070;28;20034;-74
2021/12/18 02:30:25;;;;;;;0.00;0.00;;;;;;;6.24;88.07;104222.28;5014010;28;20395;-74
2021/12/18 02:32:52;;;;;;;0.10;0.10;;;;;;;6.25;88.14;104223.19;5009836;28;20393;-75
2021/12/18 02:35:32;;;;;;;0.10;0.10;;;;;;;6.24;88.05;104214.47;5009714;28;20026;-75
2021/12/18 02:38:13;;;;;;;0.10;0.10;;;;;;;6.25;88.03;104220.56;5014374;28;20022;-75
2021/12/18 02:43:42;;;;;;;0.00;0.00;;;;;;;6.25;88.12;104217.97;5015912;28;20037;-76
2021/12/18 02:46:08;;;;;;;0.10;0.10;;;;;;;6.22;88.22;104220.28;5010453;28;20049;-75
2021/12/18 02:48:39;;;;;;;0.03;0.03;;;;;;;6.20;88.26;104217.50;5015989;28;20025;-76
2021/12/18 02:51:06;;;;;;;0.00;0.00;;;;;;;6.19;88.14;104215.69;5016819;28;20041;-75
2021/12/18 02:53:33;;;;;;;0.10;0.10;;;;;;;6.21;88.54;104214.13;5006960;28;20034;-75
2021/12/18 02:56:01;;;;;;;0.07;0.07;;;;;;;6.20;88.45;104204.50;5016586;28;20040;-75
2021/12/18 02:58:27;;;;;;;0.07;0.07;;;;;;;6.20;88.37;104204.50;5012982;28;20029;-76
2021/12/18 03:00:55;;;;;;;0.10;0.10;;;;;;;6.18;88.46;104206.03;5016598;28;20018;-75
2021/12/18 03:03:26;;;;;;;0.03;0.03;;;;;;;6.18;88.41;104206.03;5016516;28;20049;-76
2021/12/18 03:27:24;;;;;;;0.10;0.10;;;;;;;6.13;88.52;104213.38;5015054;28;20034;-75
2021/12/18 03:29:49;;;;;;;0.00;0.00;;;;;;;6.12;88.54;104208.00;5006735;28;20402;-75
2021/12/18 03:32:14;;;;;;;0.10;0.10;;;;;;;6.10;88.40;104210.44;5016075;28;20061;-75
2021/12/18 03:34:40;;;;;;;0.10;0.10;;;;;;;6.10;88.50;104202.66;5015796;28;20324;-74
2021/12/18 03:37:05;;;;;;;0.10;0.10;;;;;;;6.08;88.62;104198.97;5007599;28;20025;-75
2021/12/18 03:39:31;;;;;;;0.10;0.10;;;;;;;6.07;88.57;104204.00;5014495;28;20062;-75
2021/12/18 03:41:56;;;;;;;0.03;0.03;;;;;;;6.03;88.60;104194.97;5017234;28;20026;-75
2021/12/18 03:44:22;;;;;;;0.07;0.07;;;;;;;6.03;88.78;104200.19;5018643;28;20053;-74
2021/12/18 03:46:48;;;;;;;0.10;0.10;;;;;;;6.05;88.73;104198.69;5021193;28;20455;-74
2021/12/18 03:49:14;;;;;;;0.10;0.10;;;;;;;6.04;88.60;104192.53;5017548;28;20300;-75
2021/12/18 03:51:39;;;;;;;0.10;0.10;;;;;;;6.00;88.93;104190.38;5001541;28;20030;-75
2021/12/18 03:54:05;;;;;;;0.10;0.10;;;;;;;5.99;88.88;104193.72;5003189;28;20064;-75
2021/12/18 03:56:30;;;;;;;0.17;0.17;;;;;;;5.99;89.03;104187.63;5020795;28;20022;-74
2021/12/18 03:58:56;;;;;;;0.10;0.10;;;;;;;5.97;88.77;104181.34;5020699;28;20404;-74
2021/12/18 04:01:21;;;;;;;0.13;0.13;;;;;;;5.94;88.52;104189.75;5020772;28;20018;-74
2021/12/18 04:03:47;;;;;;;0.10;0.10;;;;;;;5.92;88.92;104191.28;5019785;28;20038;-75
2021/12/18 04:06:12;;;;;;;0.00;0.00;;;;;;;5.90;89.03;104191.13;5021069;28;20129;-75
2021/12/18 04:08:38;;;;;;;0.00;0.00;;;;;;;5.90;88.90;104196.31;5003132;28;20308;-75
2021/12/18 04:11:03;;;;;;;0.10;0.10;;;;;;;5.89;89.09;104186.69;5009442;28;20038;-74
2021/12/18 04:13:30;;;;;;;0.10;0.10;;;;;;;5.88;88.93;104196.94;5020118;28;20137;-74
2021/12/18 04:15:56;;;;;;;0.10;0.10;;;;;;;5.88;88.95;104191.72;5020118;28;20042;-75
2021/12/18 04:18:21;;;;;;;0.00;0.00;;;;;;;5.85;88.97;104200.13;5020874;28;20083;-76
2021/12/18 04:20:47;;;;;;;0.10;0.10;;;;;;;5.86;89.07;104203.66;5019880;28;20030;-75
2021/12/18 04:23:12;;;;;;;0.10;0.10;;;;;;;5.82;89.00;104197.22;5020844;28;20072;-75
2021/12/18 04:25:38;;;;;;;0.10;0.10;;;;;;;5.82;89.34;104199.84;5019751;28;20209;-75
2021/12/18 04:28:03;;;;;;;0.00;0.00;;;;;;;5.82;89.30;104196.31;5020145;28;20037;-74
2021/12/18 04:30:28;;;;;;;0.10;0.10;;;;;;;5.80;89.18;104190.97;5020165;28;20030;-75
2021/12/18 04:32:54;;;;;;;0.10;0.10;;;;;;;5.80;89.16;104203.03;5020093;28;20044;-75
2021/12/18 04:35:19;;;;;;;0.07;0.07;;;;;;;5.78;89.27;104209.00;5020416;28;20112;-75
2021/12/18 04:37:45;;;;;;;0.10;0.10;;;;;;;5.77;89.26;104208.84;5019628;28;20053;-75
2021/12/18 04:40:10;;;;;;;0.10;0.10;;;;;;;5.75;89.00;104207.78;5020228;28;20053;-75
2021/12/18 04:42:36;;;;;;;0.10;0.10;;;;;;;5.69;88.94;104205.47;5014848;28;20037;-75
2021/12/18 04:45:02;;;;;;;0.07;0.07;;;;;;;5.65;89.10;104205.91;5007030;28;20300;-75
2021/12/18 04:47:27;;;;;;;0.10;0.10;;;;;;;5.64;89.16;104211.88;5020273;28;20401;-75
2021/12/18 04:49:52;;;;;;;0.00;0.00;;;;;;;5.60;89.12;104212.34;5019494;28;20076;-75
2021/12/18 04:52:18;;;;;;;0.10;0.10;;;;;;;5.59;89.10;104214.00;5029998;28;20278;-75
2021/12/18 04:54:44;;;;;;;0.07;0.07;;;;;;;5.61;89.40;104206.38;5019423;28;20252;-76
2021/12/18 04:57:10;;;;;;;0.00;0.00;;;;;;;5.58;89.03;104216.44;5020052;28;20335;-75
2021/12/18 04:59:42;;;;;;;0.00;0.00;;;;;;;5.55;89.21;104205.72;5019614;28;20067;-76
2021/12/18 05:02:08;;;;;;;0.10;0.10;;;;;;;5.53;89.28;104209.84;5020240;28;20407;-75
2021/12/18 05:04:33;;;;;;;0.10;0.10;;;;;;;5.50;89.40;104213.94;5019583;28;20022;-75
2021/12/18 05:06:59;;;;;;;0.10;0.10;;;;;;;5.47;89.20;104208.44;5015950;28;20050;-74
2021/12/18 05:09:24;;;;;;;0.10;0.10;;;;;;;5.46;89.57;104222.22;5000108;28;20026;-77
2021/12/18 05:11:50;;;;;;;0.00;0.00;;;;;;;5.46;89.48;104227.41;4999994;28;20037;-75
2021/12/18 05:14:16;;;;;;;0.00;0.00;;;;;;;5.49;89.72;104224.22;5008565;28;20036;-75
2021/12/18 05:16:41;;;;;;;0.10;0.10;;;;;;;5.54;89.84;104225.59;5018934;28;20026;-74
2021/12/18 05:19:07;;;;;;;0.00;0.00;;;;;;;5.53;89.41;104220.25;5019259;28;20025;-75
2021/12/18 05:21:32;;;;;;;0.03;0.03;;;;;;;5.54;89.78;104224.69;5019784;28;20105;-74
2021/12/18 05:23:57;;;;;;;0.00;0.00;;;;;;;5.54;90.44;104224.69;5013122;28;20127;-75
2021/12/18 05:26:23;;;;;;;0.03;0.03;;;;;;;5.55;89.46;104223.94;5016304;28;20033;-75
2021/12/18 05:28:48;;;;;;;0.00;0.00;;;;;;;5.55;90.15;104236.94;5018356;28;20053;-74
2021/12/18 05:31:16;;;;;;;0.10;0.10;;;;;;;5.56;90.02;104236.16;5019813;28;20341;-75
2021/12/18 05:33:44;;;;;;;0.00;0.00;;;;;;;5.55;89.88;104235.22;5034700;28;20045;-74
2021/12/18 05:36:29;;;;;;;0.00;0.00;;;;;;;5.56;89.78;104230.97;5019353;28;20439;-75
2021/12/18 05:38:55;;;;;;;0.00;0.00;;;;;;;5.54;89.86;104224.69;5020129;28;20021;-75
2021/12/18 05:41:20;;;;;;;0.00;0.00;;;;;;;5.52;90.15;104218.41;5019894;28;20034;-74
2021/12/18 05:43:45;;;;;;;0.10;0.10;;;;;;;5.50;90.09;104219.16;5018673;28;20080;-75
2021/12/18 05:46:11;;;;;;;0.00;0.00;;;;;;;5.52;90.06;104223.63;5010351;28;20018;-75
2021/12/18 05:48:36;;;;;;;0.00;0.00;;;;;;;5.52;90.32;104224.53;5018704;28;20027;-74
2021/12/18 05:51:05;;;;;;;0.00;0.00;;;;;;;5.49;90.37;104225.13;5019123;28;20022;-75
2021/12/18 05:53:30;;;;;;;0.00;0.00;;;;;;;5.46;90.16;104224.81;5033967;28;20049;-75
2021/12/18 05:55:56;;;;;;;0.00;0.00;;;;;;;5.46;90.40;104226.47;5006844;28;20373;-74
2021/12/18 05:58:21;;;;;;;0.00;0.00;;;;;;;5.45;90.34;104219.44;5018425;28;20076;-74
2021/12/18 06:00:46;;;;;;;0.00;0.00;;;;;;;5.47;89.99;104216.25;5018409;28;20076;-74
2021/12/18 06:03:11;;;;;;;0.10;0.10;;;;;;;5.43;90.11;104218.38;5017276;28;20053;-74
2021/12/18 06:05:37;;;;;;;0.03;0.03;;;;;;;5.42;90.20;104221.75;5014817;28;20060;-75
2021/12/18 06:08:05;;;;;;;0.00;0.00;;;;;;;5.42;90.19;104214.84;5017527;28;20389;-75
2021/12/18 06:10:33;;;;;;;0.00;0.00;;;;;;;5.39;90.03;104214.53;5018406;28;20269;-75
2021/12/18 06:13:00;;;;;;;0.00;0.00;;;;;;;5.37;90.02;104210.88;5016850;28;20096;-74
2021/12/18 06:15:25;;;;;;;0.10;0.10;;;;;;;5.36;90.07;104212.53;5018315;28;20053;-74
2021/12/18 06:17:53;;;;;;;0.10;0.10;;;;;;;5.33;90.03;104209.63;5016525;28;20034;-74
2021/12/18 06:20:18;;;;;;;0.00;0.00;;;;;;;5.33;90.24;104219.09;5004139;28;20395;-74
2021/12/18 06:22:43;;;;;;;0.00;0.00;;;;;;;5.33;90.12;104211.28;5002153;28;20049;-74
2021/12/18 06:25:09;;;;;;;0.00;0.00;;;;;;;5.31;90.06;104205.97;5017636;28;20096;-73
2021/12/18 06:27:34;;;;;;;0.03;0.03;;;;;;;5.32;90.29;104209.47;5011187;28;20392;-74
2021/12/18 06:30:01;;;;;;;0.10;0.10;;;;;;;5.32;90.28;104210.41;5017639;28;20033;-74
2021/12/18 06:32:27;;;;;;;0.00;0.00;;;;;;;5.33;90.35;104209.63;5017990;28;20034;-74
2021/12/18 06:34:52;;;;;;;0.10;0.10;;;;;;;5.32;90.05;104200.00;5018026;28;20036;-74
2021/12/18 06:37:17;;;;;;;0.10;0.10;;;;;;;5.32;90.54;104207.78;5017144;28;20065;-74
2021/12/18 06:39:43;;;;;;;0.00;0.00;;;;;;;5.33;90.15;104207.03;5017742;28;20021;-74
2021/12/18 06:42:08;;;;;;;0.00;0.00;;;;;;;5.32;90.22;104210.41;5018011;28;20388;-74
2021/12/18 06:44:33;;;;;;;0.03;0.03;;;;;;;5.32;90.32;104205.19;5017479;28;20284;-74
2021/12/18 06:46:59;;;;;;;0.00;0.00;;;;;;;5.33;90.53;104206.09;5015372;28;20034;-74
2021/12/18 06:49:24;;;;;;;0.00;0.00;;;;;;;5.35;90.64;104209.75;5017163;28;20065;-73
2021/12/18 06:51:49;;;;;;;0.00;0.00;;;;;;;5.36;90.48;104204.72;5017883;28;20025;-75
2021/12/18 06:54:15;;;;;;;0.00;0.00;;;;;;;5.38;90.61;104206.56;5018109;28;20037;-76
2021/12/18 06:56:40;;;;;;;0.00;0.00;;;;;;;5.40;90.49;104211.16;5017361;28;20106;-74
2021/12/18 06:59:05;;;;;;;0.00;0.00;;;;;;;5.39;90.35;104209.34;5017500;28;20026;-74
2021/12/18 07:01:31;;;;;;;0.00;0.00;;;;;;;5.40;90.74;104208.56;5017624;28;20037;-75
2021/12/18 07:03:57;;;;;;;0.03;0.03;;;;;;;5.38;90.36;104210.09;5000643;28;20014;-74
2021/12/18 07:06:22;;;;;;;0.00;0.00;;;;;;;5.39;90.57;104219.72;5017480;28;20376;-73
2021/12/18 07:08:47;;;;;;;0.07;0.07;;;;;;;5.38;90.64;104215.31;5017038;28;20038;-74
2021/12/18 07:11:13;;;;;;;0.00;0.00;;;;;;;5.38;90.50;104214.38;5017773;28;20018;-74
2021/12/18 07:13:39;;;;;;;0.00;0.00;;;;;;;5.37;90.40;104210.88;5007725;28;20028;-74
2021/12/18 07:16:04;;;;;;;0.00;0.00;;;;;;;5.35;90.54;104221.09;5013415;28;20069;-74
2021/12/18 07:18:30;;;;;;;0.00;0.00;;;;;;;5.34;90.58;104219.25;5017161;28;20121;-74
2021/12/18 07:20:56;;;;;;;0.00;0.00;;;;;;;5.32;90.37;104225.06;5016892;28;20427;-74
2021/12/18 07:23:21;;;;;;;0.00;0.00;;;;;;;5.25;90.14;104219.97;5017619;28;20068;-73
2021/12/18 07:25:47;;;;;;;0.00;0.00;;;;;;;5.19;90.30;104220.25;5016796;28;20076;-74
2021/12/18 07:28:12;;;;;;;0.00;0.00;;;;;;;5.22;90.40;104220.56;5016772;28;20092;-74
2021/12/18 07:30:37;;;;;;;0.00;0.00;;;;;;;5.20;90.03;104217.81;5017215;28;20093;-75
2021/12/18 07:33:09;;;;;;;0.00;0.00;;;;;;;5.19;90.00;104222.84;5016284;28;20427;-74
2021/12/18 07:35:35;;;;;;;0.00;0.00;;;;;;;5.13;90.27;104211.81;5016093;28;20026;-74
2021/12/18 07:38:00;;;;;;;0.10;0.10;;;;;;;5.11;90.41;104226.34;5017001;28;20368;-73
2021/12/18 07:40:25;;;;;;;0.00;0.00;;;;;;;5.11;90.09;104221.13;5017249;28;20113;-75
2021/12/18 07:42:51;;;;;;;0.00;0.00;;;;;;;5.11;90.27;104221.13;5017034;28;20084;-74
2021/12/18 07:45:17;;;;;;;0.00;0.00;;;;;;;5.05;90.09;104224.00;5015720;28;20128;-74
2021/12/18 07:47:42;;;;;;;0.00;0.00;;;;;;;5.00;89.91;104227.78;5015812;28;20050;-74
2021/12/18 07:50:12;;;;;;;0.00;0.00;;;;;;;4.97;90.00;104222.28;5015725;28;20125;-76
2021/12/18 07:52:38;;;;;;;0.00;0.00;;;;;;;4.94;89.93;104225.47;5016053;28;20392;-75
2021/12/18 07:55:04;;;;;;;0.00;0.00;;;;;;;4.85;89.92;104228.00;5010127;28;20149;-75
2021/12/18 07:57:29;;;;;;;0.00;0.00;;;;;;;4.80;89.87;104224.91;5015803;28;20022;-74
2021/12/18 07:59:54;;;;;;;0.00;0.00;;;;;;;4.76;89.91;104227.97;5016466;28;20426;-75
2021/12/18 08:02:20;;;;;;;0.00;0.00;;;;;;;4.81;90.04;104220.66;5015879;28;20372;-73
2021/12/18 08:04:45;;;;;;;0.00;0.00;;;;;;;4.79;89.58;104223.09;5015361;28;20143;-75
2021/12/18 08:07:10;;;;;;;0.00;0.00;;;;;;;4.76;90.02;104221.84;5015676;28;20010;-75
2021/12/18 08:09:36;;;;;;;0.10;0.10;;;;;;;4.76;90.11;104217.56;5015119;28;20104;-75
2021/12/18 08:12:01;;;;;;;0.00;0.00;;;;;;;4.72;89.87;104220.59;5016805;28;20088;-74
2021/12/18 08:14:27;;;;;;;0.10;0.10;;;;;;;4.70;90.15;104222.09;5015213;28;20109;-75
2021/12/18 08:16:52;;;;;;;0.00;0.00;;;;;;;4.75;89.81;104220.00;5006246;28;20413;-75
2021/12/18 08:19:17;;;;;;;0.00;0.00;;;;;;;4.70;89.81;104228.97;5015005;28;20123;-74
2021/12/18 08:21:43;;;;;;;0.00;0.00;;;;;;;4.69;89.99;104230.66;5015293;28;20054;-75
2021/12/18 08:24:08;;;;;;;0.10;0.10;;;;;;;4.67;90.08;104239.97;5015654;28;20076;-75
2021/12/18 08:26:33;;;;;;;0.00;0.00;;;;;;;4.65;90.22;104244.97;5031154;28;20117;-75
2021/12/18 08:28:59;;;;;;;0.00;0.00;;;;;;;4.64;90.16;104243.16;5014608;28;20034;-75
2021/12/18 08:31:24;;;;;;;0.00;0.00;;;;;;;4.63;90.07;104246.50;5017651;28;20414;-75
2021/12/18 08:33:50;;;;;;;0.03;0.03;;;;;;;4.59;89.84;104243.38;5009439;28;20026;-75
2021/12/18 08:36:15;;;;;;;0.00;0.00;;;;;;;4.58;89.86;104242.47;5017911;28;20105;-75
2021/12/18 08:38:41;;;;;;;0.00;0.00;;;;;;;4.58;90.01;104247.66;5017921;28;20076;-74
2021/12/18 08:41:08;;;;;;;0.10;0.10;;;;;;;4.59;90.20;104252.09;5017858;28;20033;-76
2021/12/18 08:43:33;;;;;;;0.00;0.00;;;;;;;4.57;90.04;104250.09;5008585;28;20443;-76
2021/12/18 08:45:59;;;;;;;0.03;0.03;;;;;;;4.55;89.73;104252.53;5018421;28;20057;-75
2021/12/18 08:48:24;;;;;;;0.00;0.00;;;;;;;4.57;90.13;104238.06;5017847;28;20416;-76
2021/12/18 08:50:49;;;;;;;0.10;0.10;;;;;;;4.57;90.20;104242.31;5019034;28;20033;-75
2021/12/18 08:53:15;;;;;;;0.00;0.00;;;;;;;4.61;90.14;104245.41;5018560;28;20045;-77
2021/12/18 08:55:40;;;;;;;0.03;0.03;;;;;;;4.62;90.03;104243.72;5017987;28;20068;-75
2021/12/18 08:58:05;;;;;;;0.10;0.10;;;;;;;4.63;90.06;104242.97;5018008;28;20076;-74
2021/12/18 09:00:32;;;;;;;0.10;0.10;;;;;;;4.62;90.05;104251.53;5018482;28;20250;-75
2021/12/18 09:02:59;;;;;;;0.00;0.00;;;;;;;4.64;90.10;104240.56;5018308;28;20022;-75
2021/12/18 09:05:25;;;;;;;0.00;0.00;;;;;;;4.64;90.31;104245.75;5018435;28;20025;-75
2021/12/18 09:07:50;;;;;;;0.00;0.00;;;;;;;4.65;89.95;104239.78;5017924;28;20129;-75
2021/12/18 09:10:16;;;;;;;0.00;0.00;;;;;;;4.67;90.49;104237.38;5018445;28;20104;-76
2021/12/18 09:12:43;;;;;;;0.00;0.00;;;;;;;4.68;90.32;104240.09;5018252;28;20034;-75
2021/12/18 09:15:09;;;;;;;0.00;0.00;;;;;;;4.71;90.35;104238.59;5017915;28;20377;-75
2021/12/18 09:17:34;;;;;;;0.00;0.00;;;;;;;4.72;90.22;104243.94;5017320;28;20081;-76
2021/12/18 09:19:59;;;;;;;0.00;0.00;;;;;;;4.80;90.55;104239.59;5018134;28;20070;-76
2021/12/18 09:22:25;;;;;;;0.00;0.00;;;;;;;4.78;90.09;104242.03;5017931;28;20342;-75
2021/12/18 09:24:50;;;;;;;0.00;0.00;;;;;;;4.76;89.98;104242.59;5017662;28;20045;-75
2021/12/18 09:27:17;;;;;;;0.00;0.00;;;;;;;4.74;89.81;104233.75;5017976;28;20072;-74
2021/12/18 09:29:42;;;;;;;0.00;0.00;;;;;;;4.75;89.80;104233.91;5017464;28;20041;-75
2021/12/18 09:32:08;;;;;;;0.00;0.00;;;;;;;4.71;89.66;104241.19;5018794;28;20037;-74
2021/12/18 09:34:34;;;;;;;0.10;0.10;;;;;;;4.72;89.59;104236.16;5018908;28;20040;-75
2021/12/18 09:36:59;;;;;;;0.00;0.00;;;;;;;4.69;89.63;104230.66;5017451;28;20181;-75
2021/12/18 09:39:24;;;;;;;0.00;0.00;;;;;;;4.68;89.81;104240.09;5016795;28;20044;-74
2021/12/18 09:41:51;;;;;;;0.00;0.00;;;;;;;4.70;89.77;104228.97;5017452;28;20045;-76
2021/12/18 09:44:28;;;;;;;0.10;0.10;;;;;;;4.70;89.63;104240.28;5018209;28;20065;-74
2021/12/18 09:46:55;;;;;;;0.10;0.10;;;;;;;4.75;89.99;104238.19;5018255;28;20061;-74
2021/12/18 09:49:20;;;;;;;0.00;0.00;;;;;;;4.79;90.00;104238.66;5018041;28;20297;-74
2021/12/18 09:51:46;;;;;;;0.00;0.00;;;;;;;4.83;90.01;104229.53;5018742;28;20032;-74
2021/12/18 09:54:12;;;;;;;0.00;0.00;;;;;;;4.84;89.93;104220.06;5018135;28;20030;-75
2021/12/18 09:56:38;;;;;;;0.00;0.00;;;;;;;4.80;89.75;104224.00;5018514;28;20384;-76
2021/12/18 09:59:04;;;;;;;0.00;0.00;;;;;;;4.79;89.82;104216.94;5017765;28;20062;-75
2021/12/18 10:01:30;;;;;;;0.10;0.10;;;;;;;4.87;89.68;104215.19;5017871;28;20037;-76
2021/12/18 10:03:58;;;;;;;0.10;0.10;;;;;;;4.81;89.67;104216.38;5018946;28;20045;-74
2021/12/18 10:06:42;;;;;;;0.00;0.00;;;;;;;4.79;89.77;104220.47;5018807;28;20040;-74
2021/12/18 10:09:09;;;;;;;0.10;0.10;;;;;;;4.79;89.75;104216.94;5014298;28;20366;-74
2021/12/18 10:11:53;;;;;;;0.00;0.00;;;;;;;4.80;89.75;104213.63;4998729;28;20042;-74
2021/12/18 10:14:20;;;;;;;0.00;0.00;;;;;;;4.85;89.92;104212.41;4998894;28;20030;-73
2021/12/18 10:16:49;;;;;;;1.37;0.17;;;;;;;4.88;89.73;104214.44;5006092;28;20053;-75
2021/12/18 10:19:27;;;;;;;0.00;0.00;;;;;;;4.91;89.96;104218.28;5018696;28;20053;-74
2021/12/18 10:21:57;;;;;;;0.00;0.00;;;;;;;4.92;89.84;104219.19;5017639;28;20029;-74
2021/12/18 10:24:22;;;;;;;0.00;0.00;;;;;;;4.89;89.81;104224.06;5018200;28;20034;-74
2021/12/18 10:26:48;;;;;;;0.00;0.00;;;;;;;4.86;89.72;104222.03;5018222;28;20025;-74
2021/12/18 10:29:36;;;;;;;0.20;0.20;;;;;;;4.89;89.58;104229.25;5017638;28;20025;-74
2021/12/18 10:32:13;;;;;;;0.10;0.10;;;;;;;4.92;89.41;104225.31;5018026;28;20026;-75
2021/12/18 10:34:40;;;;;;;0.00;0.00;;;;;;;4.91;89.58;104217.34;5017373;28;20045;-76
2021/12/18 10:37:14;;;;;;;0.00;0.00;;;;;;;4.92;89.58;104220.09;5017804;28;20033;-75
2021/12/18 10:40:03;;;;;;;0.00;0.00;;;;;;;4.94;89.68;104220.28;5017057;28;20088;-75
2021/12/18 10:42:33;;;;;;;0.00;0.00;;;;;;;4.95;89.60;104223.06;5014176;28;20156;-76
2021/12/18 10:45:17;;;;;;;0.00;0.00;;;;;;;4.93;89.52;104224.53;5017474;28;20329;-77
2021/12/18 10:48:00;;;;;;;0.10;0.10;;;;;;;4.92;89.58;104222.69;5017164;28;20032;-75
2021/12/18 10:50:37;;;;;;;0.10;0.10;;;;;;;4.91;89.43;104215.66;5017433;28;20038;-75
2021/12/18 10:53:18;;;;;;;0.00;0.00;;;;;;;4.85;89.34;104217.63;5016472;28;20030;-75
2021/12/18 10:55:46;;;;;;;0.00;0.00;;;;;;;4.83;89.47;104211.34;5015624;28;20125;-75
2021/12/18 10:58:15;;;;;;;0.17;0.17;;;;;;;4.81;89.46;104218.06;5017206;28;20056;-75
2021/12/18 11:00:48;;;;;;;0.10;0.10;;;;;;;4.83;89.46;104221.72;5017604;28;20033;-76
2021/12/18 11:03:22;;;;;;;0.10;0.10;;;;;;;4.80;88.86;104217.13;5017858;28;20076;-75
2021/12/18 11:06:04;;;;;;;0.10;0.10;;;;;;;4.80;89.15;104211.94;5017359;28;20037;-75
2021/12/18 11:08:30;;;;;;;0.00;0.00;;;;;;;4.79;89.08;104210.09;5016638;28;20053;-76
2021/12/18 11:13:52;;;;;;;0.10;0.10;;;;;;;4.74;89.01;104213.88;5017041;28;20044;-75
2021/12/18 11:16:18;;;;;;;0.00;0.00;;;;;;;4.77;89.34;104202.91;5017143;28;20107;-76
2021/12/18 11:18:47;;;;;;;0.00;0.00;;;;;;;4.81;89.26;104211.16;5016347;28;20385;-75
2021/12/18 11:21:13;;;;;;;0.03;0.03;;;;;;;4.84;89.33;104201.88;5017677;28;20045;-76
2021/12/18 11:23:54;;;;;;;0.10;0.10;;;;;;;4.78;89.10;104203.06;5016581;28;20101;-75
2021/12/18 11:26:23;;;;;;;0.00;0.00;;;;;;;4.78;89.40;104199.53;5015909;28;20049;-75
2021/12/18 11:28:51;;;;;;;0.13;0.13;;;;;;;4.79;89.13;104201.38;5016107;28;20403;-75
2021/12/18 11:31:17;;;;;;;0.10;0.10;;;;;;;4.81;89.20;104198.19;5017418;28;20040;-75
2021/12/18 11:33:43;;;;;;;0.10;0.10;;;;;;;4.93;89.38;104198.56;5016256;28;20307;-75
2021/12/18 11:36:09;;;;;;;0.13;0.13;;;;;;;4.88;88.88;104197.19;5016668;28;20034;-76
2021/12/18 11:38:36;;;;;;;0.07;0.07;;;;;;;4.92;89.11;104193.22;5016683;28;20029;-76
2021/12/18 11:41:03;;;;;;;0.10;0.10;;;;;;;4.98;89.13;104185.16;5016839;28;20030;-76
2021/12/18 11:43:31;;;;;;;0.00;0.00;;;;;;;4.99;89.09;104189.59;5015475;28;20121;-75
2021/12/18 11:45:57;;;;;;;0.00;0.00;;;;;;;5.00;89.10;104187.16;5017560;28;20026;-77
2021/12/18 11:48:22;;;;;;;0.00;0.00;;;;;;;4.99;89.00;104189.59;5017249;28;20041;-76
2021/12/18 11:50:48;;;;;;;0.10;0.10;;;;;;;4.98;89.10;104180.88;5017280;28;20025;-75
2021/12/18 11:53:16;;;;;;;0.10;0.10;;;;;;;4.94;88.69;104182.22;5017377;28;20049;-76
2021/12/18 11:55:50;;;;;;;0.00;0.00;;;;;;;4.99;89.14;104182.72;5017220;28;20026;-76
2021/12/18 11:58:27;;;;;;;0.10;0.10;;;;;;;5.01;89.01;104177.69;5016872;28;20058;-76
2021/12/18 12:00:52;;;;;;;0.10;0.10;;;;;;;5.01;88.91;104170.81;5016306;28;20332;-76
2021/12/18 12:03:45;;;;;;;0.00;0.00;;;;;;;5.04;88.77;104176.31;5016463;28;20037;-76
2021/12/18 12:06:25;;;;;;;0.10;0.10;;;;;;;5.06;88.90;104174.78;5018114;28;20072;-76
2021/12/18 12:09:24;;;;;;;0.07;0.07;;;;;;;5.02;88.65;104172.66;5019351;28;20030;-76
2021/12/18 12:12:13;;;;;;;0.17;0.17;;;;;;;5.03;88.64;104171.88;5023276;28;20083;-77
2021/12/18 12:14:41;;;;;;;0.10;0.10;;;;;;;5.08;88.63;104164.56;5020339;28;20407;-77
2021/12/18 12:17:16;;;;;;;0.00;0.00;;;;;;;5.04;88.58;104167.63;5021669;28;20316;-76
2021/12/18 12:19:47;;;;;;;0.10;0.10;;;;;;;5.01;88.73;104163.03;5020047;28;20136;-75
2021/12/18 12:22:36;;;;;;;0.07;0.07;;;;;;;4.97;88.56;104150.47;5021483;28;20022;-76
2021/12/18 12:25:04;;;;;;;0.10;0.10;;;;;;;4.96;88.87;104153.81;5021094;28;20312;-75
2021/12/18 12:28:08;;;;;;;0.00;0.00;;;;;;;5.00;88.90;104147.25;5021834;28;20022;-76
2021/12/18 12:30:57;;;;;;;0.10;0.10;;;;;;;4.98;89.40;104147.09;5020902;28;20029;-75
2021/12/18 12:33:27;;;;;;;0.10;0.10;;;;;;;4.99;89.39;104145.44;5020353;28;20438;-75
2021/12/18 12:36:00;;;;;;;0.10;0.10;;;;;;;4.97;88.60;104132.28;5020443;28;20081;-75